sensor_id;sensor_type;location;lat;lon;timestamp;pressure;altitude;pressure_sealevel;temperature;humidity
2036;BME280;23642;42.658;23.350;2023-06-26T00:00:15;50312.75;;;-146.31;100.00
2036;BME280;23642;42.658;23.350;2023-06-26T00:02:42;50261.19;;;-146.31;100.00
2036;BME280;23642;42.658;23.350;2023-06-26T00:05:12;50271.50;;;-146.31;100.00
2036;BME280;23642;42.658;23.350;2023-06-26T00:07:42;50263.25;;;-146.31;100.00
2036;BME280;23642;42.658;23.350;2023-06-26T00:10:10;50263.25;;;-146.31;100.00
2036;BME280;23642;42.658;23.350;2023-06-26T00:12:37;50236.44;;;-146.31;100.00
2036;BME280;23642;42.658;23.350;2023-06-26T00:15:05;50238.50;;;-146.31;100.00
2036;BME280;23642;42.658;23.350;2023-06-26T00:17:37;50226.13;;;-146.31;100.00
2036;BME280;23642;42.658;23.350;2023-06-26T00:20:05;50201.38;;;-146.31;100.00
2036;BME280;23642;42.658;23.350;2023-06-26T00:22:33;50234.38;;;-146.31;100.00
2036;BME280;23642;42.658;23.350;2023-06-26T00:25:00;50189.00;;;-146.31;100.00
2036;BME280;23642;42.658;23.350;2023-06-26T00:27:29;50189.00;;;-146.31;100.00
2036;BME280;23642;42.658;23.350;2023-06-26T00:29:56;50162.22;;;-146.31;100.00
2036;BME280;23642;42.658;23.350;2023-06-26T00:32:23;50168.38;;;-146.31;100.00
2036;BME280;23642;42.658;23.350;2023-06-26T00:34:51;50172.50;;;-146.31;100.00
2036;BME280;23642;42.658;23.350;2023-06-26T00:37:19;50151.91;;;-146.31;100.00
2036;BME280;23642;42.658;23.350;2023-06-26T00:39:48;50129.22;;;-146.31;100.00
2036;BME280;23642;42.658;23.350;2023-06-26T00:42:14;50156.03;;;-146.31;100.00
2036;BME280;23642;42.658;23.350;2023-06-26T00:44:44;50127.16;;;-146.31;100.00
2036;BME280;23642;42.658;23.350;2023-06-26T00:47:14;50129.22;;;-146.31;100.00
2036;BME280;23642;42.658;23.350;2023-06-26T00:49:42;50125.09;;;-146.31;100.00
2036;BME280;23642;42.658;23.350;2023-06-26T00:52:13;50123.03;;;-146.31;100.00
2036;BME280;23642;42.658;23.350;2023-06-26T00:54:43;50102.41;;;-146.31;100.00
2036;BME280;23642;42.658;23.350;2023-06-26T00:57:11;50100.34;;;-146.31;100.00
2036;BME280;23642;42.658;23.350;2023-06-26T00:59:38;50104.47;;;-146.31;100.00
2036;BME280;23642;42.658;23.350;2023-06-26T01:02:07;50102.41;;;-146.31;100.00
2036;BME280;23642;42.658;23.350;2023-06-26T01:04:36;50077.66;;;-146.31;100.00
2036;BME280;23642;42.658;23.350;2023-06-26T01:07:27;50065.28;;;-146.31;100.00
2036;BME280;23642;42.658;23.350;2023-06-26T01:09:54;50048.78;;;-146.31;100.00
2036;BME280;23642;42.658;23.350;2023-06-26T01:12:22;50057.03;;;-146.31;100.00
2036;BME280;23642;42.658;23.350;2023-06-26T01:14:51;50065.28;;;-146.31;100.00
2036;BME280;23642;42.658;23.350;2023-06-26T01:17:20;50038.47;;;-146.31;100.00
2036;BME280;23642;42.658;23.350;2023-06-26T01:19:48;50015.78;;;-146.31;100.00
2036;BME280;23642;42.658;23.350;2023-06-26T01:22:31;50024.03;;;-146.31;100.00
2036;BME280;23642;42.658;23.350;2023-06-26T01:25:18;50003.41;;;-146.31;100.00
2036;BME280;23642;42.658;23.350;2023-06-26T01:27:52;49993.09;;;-146.31;100.00
2036;BME280;23642;42.658;23.350;2023-06-26T01:30:21;49976.59;;;-146.31;100.00
2036;BME280;23642;42.658;23.350;2023-06-26T01:32:49;49947.75;;;-146.31;100.00
2036;BME280;23642;42.658;23.350;2023-06-26T01:35:17;49918.88;;;-146.31;100.00
2036;BME280;23642;42.658;23.350;2023-06-26T01:37:44;49894.13;;;-146.31;100.00
2036;BME280;23642;42.658;23.350;2023-06-26T01:40:11;49906.50;;;-146.31;100.00
2036;BME280;23642;42.658;23.350;2023-06-26T01:42:40;49887.94;;;-146.31;100.00
2036;BME280;23642;42.658;23.350;2023-06-26T01:45:13;49879.69;;;-146.31;100.00
2036;BME280;23642;42.658;23.350;2023-06-26T01:47:45;49848.75;;;-146.31;100.00
2036;BME280;23642;42.658;23.350;2023-06-26T01:50:19;49871.44;;;-146.31;100.00
2036;BME280;23642;42.658;23.350;2023-06-26T01:52:55;49852.88;;;-146.31;100.00
2036;BME280;23642;42.658;23.350;2023-06-26T01:55:28;49836.38;;;-146.31;100.00
2036;BME280;23642;42.658;23.350;2023-06-26T01:58:02;49805.47;;;-146.31;100.00
2036;BME280;23642;42.658;23.350;2023-06-26T02:00:31;49850.81;;;-146.31;100.00
2036;BME280;23642;42.658;23.350;2023-06-26T02:02:59;49821.97;;;-146.31;100.00
2036;BME280;23642;42.658;23.350;2023-06-26T02:05:26;49830.19;;;-146.31;100.00
2036;BME280;23642;42.658;23.350;2023-06-26T02:07:53;49824.03;;;-146.31;100.00
2036;BME280;23642;42.658;23.350;2023-06-26T02:10:20;49834.31;;;-146.31;100.00
2036;BME280;23642;42.658;23.350;2023-06-26T02:12:47;49842.56;;;-146.31;100.00
2036;BME280;23642;42.658;23.350;2023-06-26T02:15:17;49846.69;;;-146.31;100.00
2036;BME280;23642;42.658;23.350;2023-06-26T02:17:45;49854.94;;;-146.31;100.00
2036;BME280;23642;42.658;23.350;2023-06-26T02:20:16;49879.69;;;-146.31;100.00
2036;BME280;23642;42.658;23.350;2023-06-26T02:22:44;49896.19;;;-146.31;100.00
2036;BME280;23642;42.658;23.350;2023-06-26T02:25:11;49904.44;;;-146.31;100.00
2036;BME280;23642;42.658;23.350;2023-06-26T02:27:38;49912.69;;;-146.31;100.00
2036;BME280;23642;42.658;23.350;2023-06-26T02:33:18;49850.81;;;-146.31;100.00
2036;BME280;23642;42.658;23.350;2023-06-26T02:35:45;49879.69;;;-146.31;100.00
2036;BME280;23642;42.658;23.350;2023-06-26T02:38:14;49869.38;;;-146.31;100.00
2036;BME280;23642;42.658;23.350;2023-06-26T02:40:44;49859.06;;;-146.31;100.00
2036;BME280;23642;42.658;23.350;2023-06-26T02:43:13;49892.06;;;-146.31;100.00
2036;BME280;23642;42.658;23.350;2023-06-26T02:45:40;49852.88;;;-146.31;100.00
2036;BME280;23642;42.658;23.350;2023-06-26T02:48:07;49881.75;;;-146.31;100.00
2036;BME280;23642;42.658;23.350;2023-06-26T02:50:35;49854.94;;;-146.31;100.00
2036;BME280;23642;42.658;23.350;2023-06-26T02:53:03;49854.94;;;-146.31;100.00
2036;BME280;23642;42.658;23.350;2023-06-26T02:55:30;49840.50;;;-146.31;100.00
2036;BME280;23642;42.658;23.350;2023-06-26T02:57:57;49869.38;;;-146.31;100.00
2036;BME280;23642;42.658;23.350;2023-06-26T03:00:24;49828.13;;;-146.31;100.00
2036;BME280;23642;42.658;23.350;2023-06-26T03:02:54;49861.13;;;-146.31;100.00
2036;BME280;23642;42.658;23.350;2023-06-26T03:05:21;49865.25;;;-146.31;100.00
2036;BME280;23642;42.658;23.350;2023-06-26T03:07:51;49867.31;;;-146.31;100.00
2036;BME280;23642;42.658;23.350;2023-06-26T03:10:25;49850.81;;;-146.31;100.00
2036;BME280;23642;42.658;23.350;2023-06-26T03:13:02;49875.56;;;-146.31;100.00
2036;BME280;23642;42.658;23.350;2023-06-26T03:18:41;49852.88;;;-146.31;100.00
2036;BME280;23642;42.658;23.350;2023-06-26T03:21:08;49867.31;;;-146.31;100.00
2036;BME280;23642;42.658;23.350;2023-06-26T03:23:37;49867.31;;;-146.31;100.00
2036;BME280;23642;42.658;23.350;2023-06-26T03:26:04;49887.94;;;-146.31;100.00
2036;BME280;23642;42.658;23.350;2023-06-26T03:28:31;49887.94;;;-146.31;100.00
2036;BME280;23642;42.658;23.350;2023-06-26T03:30:58;49918.88;;;-146.31;100.00
2036;BME280;23642;42.658;23.350;2023-06-26T03:33:25;49902.38;;;-146.31;100.00
2036;BME280;23642;42.658;23.350;2023-06-26T03:35:55;49896.19;;;-146.31;100.00
2036;BME280;23642;42.658;23.350;2023-06-26T03:38:25;49896.19;;;-146.31;100.00
2036;BME280;23642;42.658;23.350;2023-06-26T03:40:59;49892.06;;;-146.31;100.00
2036;BME280;23642;42.658;23.350;2023-06-26T03:43:43;49892.06;;;-146.31;100.00
2036;BME280;23642;42.658;23.350;2023-06-26T03:46:25;49937.44;;;-146.31;100.00
2036;BME280;23642;42.658;23.350;2023-06-26T03:49:04;49916.81;;;-146.31;100.00
2036;BME280;23642;42.658;23.350;2023-06-26T03:51:55;49887.94;;;-146.31;100.00
2036;BME280;23642;42.658;23.350;2023-06-26T03:54:38;49881.75;;;-146.31;100.00
2036;BME280;23642;42.658;23.350;2023-06-26T03:57:06;49896.19;;;-146.31;100.00
2036;BME280;23642;42.658;23.350;2023-06-26T03:59:33;49892.06;;;-146.31;100.00
2036;BME280;23642;42.658;23.350;2023-06-26T04:02:04;49900.31;;;-146.31;100.00
2036;BME280;23642;42.658;23.350;2023-06-26T04:04:49;49912.69;;;-146.31;100.00
2036;BME280;23642;42.658;23.350;2023-06-26T04:07:19;49900.31;;;-146.31;99.84
2036;BME280;23642;42.658;23.350;2023-06-26T04:09:50;49947.75;;;-146.31;99.54
2036;BME280;23642;42.658;23.350;2023-06-26T04:12:19;49941.56;;;-146.31;98.69
2036;BME280;23642;42.658;23.350;2023-06-26T04:14:51;49929.19;;;-146.31;97.97
2036;BME280;23642;42.658;23.350;2023-06-26T04:17:18;49972.47;;;-146.31;97.46
2036;BME280;23642;42.658;23.350;2023-06-26T04:19:46;50032.28;;;-146.31;96.76
2036;BME280;23642;42.658;23.350;2023-06-26T04:22:13;50021.97;;;-146.31;96.37
2036;BME280;23642;42.658;23.350;2023-06-26T04:24:40;50028.16;;;-146.31;96.16
2036;BME280;23642;42.658;23.350;2023-06-26T04:27:07;50079.72;;;-146.31;95.91
2036;BME280;23642;42.658;23.350;2023-06-26T04:29:40;50034.34;;;-146.31;96.03
2036;BME280;23642;42.658;23.350;2023-06-26T04:32:09;50024.03;;;-146.31;95.74
2036;BME280;23642;42.658;23.350;2023-06-26T04:34:38;50007.53;;;-146.31;95.25
2036;BME280;23642;42.658;23.350;2023-06-26T04:37:09;50075.59;;;-146.31;94.31
2036;BME280;23642;42.658;23.350;2023-06-26T04:39:43;50044.66;;;-146.31;93.86
2036;BME280;23642;42.658;23.350;2023-06-26T04:42:15;50071.47;;;-146.31;93.96
2036;BME280;23642;42.658;23.350;2023-06-26T04:45:03;50092.09;;;-146.31;93.89
2036;BME280;23642;42.658;23.350;2023-06-26T04:47:48;50104.47;;;-146.31;93.77
2036;BME280;23642;42.658;23.350;2023-06-26T04:50:32;50118.91;;;-146.31;93.46
2036;BME280;23642;42.658;23.350;2023-06-26T04:53:07;50104.47;;;-146.31;94.33
2036;BME280;23642;42.658;23.350;2023-06-26T04:55:37;50087.97;;;-146.31;94.14
2036;BME280;23642;42.658;23.350;2023-06-26T04:58:08;50135.41;;;-146.31;93.64
2036;BME280;23642;42.658;23.350;2023-06-26T05:00:46;50164.25;;;-146.31;95.31
2036;BME280;23642;42.658;23.350;2023-06-26T05:03:21;50123.03;;;-146.31;94.67
2036;BME280;23642;42.658;23.350;2023-06-26T05:06:05;50065.28;;;-146.31;94.63
2036;BME280;23642;42.658;23.350;2023-06-26T05:08:36;50135.41;;;-146.31;93.82
2036;BME280;23642;42.658;23.350;2023-06-26T05:11:04;50112.72;;;-146.31;93.35
2036;BME280;23642;42.658;23.350;2023-06-26T05:13:33;50061.16;;;-146.31;93.26
2036;BME280;23642;42.658;23.350;2023-06-26T05:16:04;50077.66;;;-146.31;91.81
2036;BME280;23642;42.658;23.350;2023-06-26T05:21:14;50108.59;;;-146.31;92.85
2036;BME280;23642;42.658;23.350;2023-06-26T05:23:42;50141.59;;;-146.31;93.21
2036;BME280;23642;42.658;23.350;2023-06-26T05:26:21;50129.22;;;-146.31;92.86
2036;BME280;23642;42.658;23.350;2023-06-26T05:28:52;50131.28;;;-146.31;93.47
2036;BME280;23642;42.658;23.350;2023-06-26T05:31:29;50083.84;;;-146.31;91.96
2036;BME280;23642;42.658;23.350;2023-06-26T05:34:01;50106.53;;;-146.31;90.17
2036;BME280;23642;42.658;23.350;2023-06-26T05:36:33;50063.22;;;-146.31;88.71
2036;BME280;23642;42.658;23.350;2023-06-26T05:39:03;50193.13;;;-146.31;88.88
2036;BME280;23642;42.658;23.350;2023-06-26T05:41:30;50104.47;;;-146.31;88.77
2036;BME280;23642;42.658;23.350;2023-06-26T05:44:00;50127.16;;;-146.31;86.59
2036;BME280;23642;42.658;23.350;2023-06-26T05:46:28;50275.63;;;-146.31;88.78
2036;BME280;23642;42.658;23.350;2023-06-26T05:48:58;50242.63;;;-146.31;89.54
2036;BME280;23642;42.658;23.350;2023-06-26T05:51:36;50189.00;;;-146.31;88.66
2036;BME280;23642;42.658;23.350;2023-06-26T05:54:07;50189.00;;;-146.31;87.55
2036;BME280;23642;42.658;23.350;2023-06-26T05:56:36;50133.34;;;-146.31;86.65
2036;BME280;23642;42.658;23.350;2023-06-26T05:59:14;50143.66;;;-146.31;86.99
2036;BME280;23642;42.658;23.350;2023-06-26T06:01:45;50170.44;;;-146.31;85.98
2036;BME280;23642;42.658;23.350;2023-06-26T06:04:15;50143.66;;;-146.31;85.82
2036;BME280;23642;42.658;23.350;2023-06-26T06:06:42;50191.06;;;-146.31;84.15
2036;BME280;23642;42.658;23.350;2023-06-26T06:09:17;50310.69;;;-146.31;83.85
2036;BME280;23642;42.658;23.350;2023-06-26T06:11:49;50248.81;;;-146.31;84.79
2036;BME280;23642;42.658;23.350;2023-06-26T06:14:28;50230.25;;;-146.31;84.08
2036;BME280;23642;42.658;23.350;2023-06-26T06:17:07;50232.31;;;-146.31;83.67
2036;BME280;23642;42.658;23.350;2023-06-26T06:19:36;50217.88;;;-146.31;83.06
2036;BME280;23642;42.658;23.350;2023-06-26T06:22:09;50333.38;;;-146.31;82.29
2036;BME280;23642;42.658;23.350;2023-06-26T06:24:45;50374.63;;;-146.31;83.21
2036;BME280;23642;42.658;23.350;2023-06-26T06:27:19;50314.81;;;-146.31;82.28
2036;BME280;23642;42.658;23.350;2023-06-26T06:29:48;50308.63;;;-146.31;82.75
2036;BME280;23642;42.658;23.350;2023-06-26T06:32:21;50374.63;;;-146.31;83.58
2036;BME280;23642;42.658;23.350;2023-06-26T06:37:57;50354.00;;;-146.31;82.99
2036;BME280;23642;42.658;23.350;2023-06-26T06:42:32;50368.44;;;-146.31;80.65
2036;BME280;23642;42.658;23.350;2023-06-26T06:45:52;50312.75;;;-146.31;78.63
2036;BME280;23642;42.658;23.350;2023-06-26T06:48:22;50306.56;;;-146.31;80.59
2036;BME280;23642;42.658;23.350;2023-06-26T06:50:53;50438.56;;;-146.31;79.25
2036;BME280;23642;42.658;23.350;2023-06-26T06:53:37;50362.25;;;-146.31;78.57
2036;BME280;23642;42.658;23.350;2023-06-26T06:56:13;50422.06;;;-146.31;79.14
2036;BME280;23642;42.658;23.350;2023-06-26T06:58:55;50391.13;;;-146.31;78.92
2036;BME280;23642;42.658;23.350;2023-06-26T07:01:28;50372.56;;;-146.31;78.42
2036;BME280;23642;42.658;23.350;2023-06-26T07:08:05;50417.94;;;-146.31;76.27
2036;BME280;23642;42.658;23.350;2023-06-26T07:10:57;50498.38;;;-146.31;74.04
2036;BME280;23642;42.658;23.350;2023-06-26T07:13:42;50558.19;;;-146.31;74.35
2036;BME280;23642;42.658;23.350;2023-06-26T07:16:37;50564.38;;;-146.31;73.32
2036;BME280;23642;42.658;23.350;2023-06-26T07:19:08;50650.97;;;-146.31;75.35
2036;BME280;23642;42.658;23.350;2023-06-26T07:25:05;50622.13;;;-146.31;75.54
2036;BME280;23642;42.658;23.350;2023-06-26T07:27:56;50700.50;;;-146.31;75.19
2036;BME280;23642;42.658;23.350;2023-06-26T07:30:39;50677.81;;;-146.31;74.05
2036;BME280;23642;42.658;23.350;2023-06-26T07:34:52;50634.47;;;-146.31;75.02
2036;BME280;23642;42.658;23.350;2023-06-26T07:37:06;50587.06;;;-146.31;71.75
2036;BME280;23642;42.658;23.350;2023-06-26T07:40:17;50760.31;;;-146.31;70.30
2036;BME280;23642;42.658;23.350;2023-06-26T07:43:00;50737.63;;;-146.31;70.86
2036;BME280;23642;42.658;23.350;2023-06-26T07:45:35;50791.25;;;-146.31;70.56
2036;BME280;23642;42.658;23.350;2023-06-26T07:48:23;50869.63;;;-146.31;70.97
2036;BME280;23642;42.658;23.350;2023-06-26T07:54:21;50927.38;;;-146.31;74.47
2036;BME280;23642;42.658;23.350;2023-06-26T07:57:28;50923.25;;;-146.31;71.75
2036;BME280;23642;42.658;23.350;2023-06-26T08:06:45;50659.25;;;-146.31;68.03
2036;BME280;23642;42.658;23.350;2023-06-26T08:09:43;50989.25;;;-146.31;66.63
2036;BME280;23642;42.658;23.350;2023-06-26T08:22:38;50976.88;;;-146.31;67.30
2036;BME280;23642;42.658;23.350;2023-06-26T08:25:24;50921.19;;;-146.31;66.27
2036;BME280;23642;42.658;23.350;2023-06-26T08:27:54;50991.31;;;-146.31;65.54
2036;BME280;23642;42.658;23.350;2023-06-26T08:30:58;51146.03;;;-146.31;69.28
2036;BME280;23642;42.658;23.350;2023-06-26T08:33:34;51216.16;;;-146.31;69.78
2036;BME280;23642;42.658;23.350;2023-06-26T08:36:23;51034.63;;;-146.31;69.17
2036;BME280;23642;42.658;23.350;2023-06-26T08:42:29;50985.13;;;-146.31;67.63
2036;BME280;23642;42.658;23.350;2023-06-26T08:48:25;51067.63;;;-146.31;70.72
2036;BME280;23642;42.658;23.350;2023-06-26T08:51:25;51290.44;;;-146.31;68.75
2036;BME280;23642;42.658;23.350;2023-06-26T08:54:40;51071.75;;;-146.31;67.47
2036;BME280;23642;42.658;23.350;2023-06-26T08:57:44;50704.63;;;-146.31;63.00
2036;BME280;23642;42.658;23.350;2023-06-26T09:00:28;50766.50;;;-146.31;55.68
2036;BME280;23642;42.658;23.350;2023-06-26T09:06:59;50842.81;;;-146.31;57.48
2036;BME280;23642;42.658;23.350;2023-06-26T09:09:37;50978.94;;;-146.31;55.68
2036;BME280;23642;42.658;23.350;2023-06-26T09:12:06;51108.91;;;-146.31;56.33
2036;BME280;23642;42.658;23.350;2023-06-26T09:15:43;50962.44;;;-146.31;56.56
2036;BME280;23642;42.658;23.350;2023-06-26T09:17:56;51100.66;;;-146.31;56.13
2036;BME280;23642;42.658;23.350;2023-06-26T09:20:39;51152.22;;;-146.31;57.77
2036;BME280;23642;42.658;23.350;2023-06-26T09:23:09;51197.59;;;-146.31;56.17
2036;BME280;23642;42.658;23.350;2023-06-26T09:25:56;51278.06;;;-146.31;55.36
2036;BME280;23642;42.658;23.350;2023-06-26T09:28:25;51513.22;;;-146.31;54.34
2036;BME280;23642;42.658;23.350;2023-06-26T09:31:14;51445.16;;;-146.31;55.39
2036;BME280;23642;42.658;23.350;2023-06-26T09:33:59;51465.78;;;-146.31;56.11
2036;BME280;23642;42.658;23.350;2023-06-26T09:36:32;51323.44;;;-146.31;55.81
2036;BME280;23642;42.658;23.350;2023-06-26T09:39:20;51127.47;;;-146.31;53.12
2036;BME280;23642;42.658;23.350;2023-06-26T09:41:55;50976.88;;;-146.31;51.75
2036;BME280;23642;42.658;23.350;2023-06-26T09:45:35;51224.41;;;-146.31;53.78
2036;BME280;23642;42.658;23.350;2023-06-26T09:48:45;51209.97;;;-146.31;53.92
2036;BME280;23642;42.658;23.350;2023-06-26T09:51:22;51375.00;;;-146.31;54.14
2036;BME280;23642;42.658;23.350;2023-06-26T09:53:50;51377.06;;;-146.31;53.46
2036;BME280;23642;42.658;23.350;2023-06-26T09:56:28;51457.53;;;-146.31;53.29
2036;BME280;23642;42.658;23.350;2023-06-26T09:58:58;51622.56;;;-146.31;54.71
2036;BME280;23642;42.658;23.350;2023-06-26T10:01:33;51480.22;;;-146.31;52.98
2036;BME280;23642;42.658;23.350;2023-06-26T10:04:01;51445.16;;;-146.31;52.04
2036;BME280;23642;42.658;23.350;2023-06-26T10:06:32;51624.63;;;-146.31;49.85
2036;BME280;23642;42.658;23.350;2023-06-26T10:09:04;51715.41;;;-146.31;52.25
2036;BME280;23642;42.658;23.350;2023-06-26T10:11:36;51851.59;;;-146.31;52.86
2036;BME280;23642;42.658;23.350;2023-06-26T10:14:14;51729.84;;;-146.31;51.84
2036;BME280;23642;42.658;23.350;2023-06-26T10:17:11;51934.13;;;-146.31;51.84
2036;BME280;23642;42.658;23.350;2023-06-26T10:20:02;51942.38;;;-146.31;52.39
2036;BME280;23642;42.658;23.350;2023-06-26T10:22:37;51804.13;;;-146.31;51.24
2036;BME280;23642;42.658;23.350;2023-06-26T10:25:34;51828.88;;;-146.31;50.99
2036;BME280;23642;42.658;23.350;2023-06-26T10:28:05;51781.44;;;-146.31;50.74
2036;BME280;23642;42.658;23.350;2023-06-26T10:30:42;51649.41;;;-146.31;49.43
2036;BME280;23642;42.658;23.350;2023-06-26T10:33:22;51729.84;;;-146.31;49.50
2036;BME280;23642;42.658;23.350;2023-06-26T10:36:14;51921.75;;;-146.31;50.20
2036;BME280;23642;42.658;23.350;2023-06-26T10:39:04;52074.44;;;-146.31;51.24
2036;BME280;23642;42.658;23.350;2023-06-26T10:41:43;52123.94;;;-146.31;51.56
2036;BME280;23642;42.658;23.350;2023-06-26T10:44:19;52295.22;;;-146.31;51.93
2036;BME280;23642;42.658;23.350;2023-06-26T10:47:12;52266.31;;;-146.31;52.33
2036;BME280;23642;42.658;23.350;2023-06-26T10:49:53;52307.59;;;-146.31;52.62
2036;BME280;23642;42.658;23.350;2023-06-26T10:52:38;52235.38;;;-146.31;52.05
2036;BME280;23642;42.658;23.350;2023-06-26T10:55:30;52237.44;;;-146.31;51.64
2036;BME280;23642;42.658;23.350;2023-06-26T10:58:53;52264.25;;;-146.31;51.13
2036;BME280;23642;42.658;23.350;2023-06-26T11:17:30;52192.03;;;-146.31;49.99
2036;BME280;23642;42.658;23.350;2023-06-26T11:19:16;52225.06;;;-146.31;50.02
2036;BME280;23642;42.658;23.350;2023-06-26T11:22:10;52150.78;;;-146.31;49.26
2036;BME280;23642;42.658;23.350;2023-06-26T11:25:14;51969.19;;;-146.31;49.06
2036;BME280;23642;42.658;23.350;2023-06-26T11:28:09;52163.16;;;-146.31;49.36
2036;BME280;23642;42.658;23.350;2023-06-26T11:35:27;52313.78;;;-146.31;50.48
2036;BME280;23642;42.658;23.350;2023-06-26T11:37:58;52175.53;;;-146.31;50.74
2036;BME280;23642;42.658;23.350;2023-06-26T11:40:45;52093.00;;;-146.31;48.58
2036;BME280;23642;42.658;23.350;2023-06-26T11:43:21;52317.91;;;-146.31;48.83
2036;BME280;23642;42.658;23.350;2023-06-26T11:46:45;52386.00;;;-146.31;49.24
2036;BME280;23642;42.658;23.350;2023-06-26T11:49:38;52305.53;;;-146.31;49.39
2036;BME280;23642;42.658;23.350;2023-06-26T11:52:36;52165.22;;;-146.31;48.58
2036;BME280;23642;42.658;23.350;2023-06-26T11:58:35;52297.28;;;-146.31;49.39
2036;BME280;23642;42.658;23.350;2023-06-26T12:01:15;52260.13;;;-146.31;50.14
2036;BME280;23642;42.658;23.350;2023-06-26T12:03:51;52132.19;;;-146.31;49.63
2036;BME280;23642;42.658;23.350;2023-06-26T12:10:21;52004.28;;;-146.31;48.64
2036;BME280;23642;42.658;23.350;2023-06-26T12:13:32;52064.09;;;-146.31;47.94
2036;BME280;23642;42.658;23.350;2023-06-26T12:16:06;52295.22;;;-146.31;47.89
2036;BME280;23642;42.658;23.350;2023-06-26T12:19:07;52152.84;;;-146.31;47.56
2036;BME280;23642;42.658;23.350;2023-06-26T12:21:55;52286.97;;;-146.31;47.16
2036;BME280;23642;42.658;23.350;2023-06-26T12:24:39;52214.75;;;-146.31;48.26
2036;BME280;23642;42.658;23.350;2023-06-26T12:30:47;52235.38;;;-146.31;46.45
2036;BME280;23642;42.658;23.350;2023-06-26T12:34:09;52249.81;;;-146.31;47.00
2036;BME280;23642;42.658;23.350;2023-06-26T12:36:49;52357.13;;;-146.31;46.00
2036;BME280;23642;42.658;23.350;2023-06-26T12:40:00;52231.25;;;-146.31;45.26
2036;BME280;23642;42.658;23.350;2023-06-26T12:42:38;52336.50;;;-146.31;46.36
2036;BME280;23642;42.658;23.350;2023-06-26T12:45:13;52346.81;;;-146.31;46.84
2036;BME280;23642;42.658;23.350;2023-06-26T12:47:54;52332.34;;;-146.31;47.74
2036;BME280;23642;42.658;23.350;2023-06-26T12:54:02;52445.84;;;-146.31;48.87
2036;BME280;23642;42.658;23.350;2023-06-26T12:56:38;52441.72;;;-146.31;49.57
2036;BME280;23642;42.658;23.350;2023-06-26T12:59:31;52466.50;;;-146.31;50.54
2036;BME280;23642;42.658;23.350;2023-06-26T13:04:33;52458.25;;;-146.31;50.91
2036;BME280;23642;42.658;23.350;2023-06-26T13:05:31;52485.06;;;-146.31;51.27
2036;BME280;23642;42.658;23.350;2023-06-26T13:08:28;52421.09;;;-146.31;50.94
2036;BME280;23642;42.658;23.350;2023-06-26T13:11:37;52400.47;;;-146.31;50.34
2036;BME280;23642;42.658;23.350;2023-06-26T13:25:00;52433.47;;;-146.31;49.79
2036;BME280;23642;42.658;23.350;2023-06-26T13:28:19;52598.56;;;-146.31;50.72
2036;BME280;23642;42.658;23.350;2023-06-26T13:34:47;52468.56;;;-146.31;49.99
2036;BME280;23642;42.658;23.350;2023-06-26T13:50:39;52194.09;;;-146.31;47.65
2036;BME280;23642;42.658;23.350;2023-06-26T13:53:13;52185.84;;;-146.31;47.32
2036;BME280;23642;42.658;23.350;2023-06-26T13:59:16;51715.41;;;-146.31;44.91
2036;BME280;23642;42.658;23.350;2023-06-26T14:01:44;52156.97;;;-146.31;46.42
2036;BME280;23642;42.658;23.350;2023-06-26T14:04:14;52214.75;;;-146.31;47.84
2036;BME280;23642;42.658;23.350;2023-06-26T14:10:19;52462.38;;;-146.31;50.26
2036;BME280;23642;42.658;23.350;2023-06-26T14:16:44;52439.66;;;-146.31;48.94
2036;BME280;23642;42.658;23.350;2023-06-26T14:19:38;52286.97;;;-146.31;47.19
2036;BME280;23642;42.658;23.350;2023-06-26T14:22:19;52227.13;;;-146.31;47.63
2036;BME280;23642;42.658;23.350;2023-06-26T14:25:24;52078.56;;;-146.31;46.27
2036;BME280;23642;42.658;23.350;2023-06-26T14:28:19;52154.91;;;-146.31;46.06
2036;BME280;23642;42.658;23.350;2023-06-26T14:31:05;52223.00;;;-146.31;44.94
2036;BME280;23642;42.658;23.350;2023-06-26T14:33:47;52260.13;;;-146.31;44.44
2036;BME280;23642;42.658;23.350;2023-06-26T14:40:09;52753.34;;;-146.31;47.66
2036;BME280;23642;42.658;23.350;2023-06-26T14:42:55;52623.34;;;-146.31;48.43
2036;BME280;23642;42.658;23.350;2023-06-26T14:45:55;52817.31;;;-146.31;56.48
2036;BME280;23642;42.658;23.350;2023-06-26T14:48:28;52937.03;;;-146.31;63.00
2036;BME280;23642;42.658;23.350;2023-06-26T14:50:58;52949.41;;;-146.31;67.28
2036;BME280;23642;42.658;23.350;2023-06-26T14:53:29;52825.59;;;-146.31;70.06
2036;BME280;23642;42.658;23.350;2023-06-26T14:55:56;52520.16;;;-146.31;75.95
2036;BME280;23642;42.658;23.350;2023-06-26T14:58:24;52140.44;;;-146.31;80.27
2036;BME280;23642;42.658;23.350;2023-06-26T15:00:53;52000.16;;;-146.31;83.89
2036;BME280;23642;42.658;23.350;2023-06-26T15:03:31;52148.72;;;-146.31;83.04
2036;BME280;23642;42.658;23.350;2023-06-26T15:06:20;52008.41;;;-146.31;87.50
2036;BME280;23642;42.658;23.350;2023-06-26T15:08:50;52002.22;;;-146.31;86.05
2036;BME280;23642;42.658;23.350;2023-06-26T15:11:18;51987.75;;;-146.31;86.17
2036;BME280;23642;42.658;23.350;2023-06-26T15:13:46;51913.47;;;-146.31;89.64
2036;BME280;23642;42.658;23.350;2023-06-26T15:16:15;51847.47;;;-146.31;91.74
2036;BME280;23642;42.658;23.350;2023-06-26T15:19:04;51764.94;;;-146.31;94.69
2036;BME280;23642;42.658;23.350;2023-06-26T15:21:39;52066.16;;;-146.31;88.30
2036;BME280;23642;42.658;23.350;2023-06-26T15:24:15;52090.94;;;-146.31;86.58
2036;BME280;23642;42.658;23.350;2023-06-26T15:27:00;52045.53;;;-146.31;87.35
2036;BME280;23642;42.658;23.350;2023-06-26T15:29:47;51940.31;;;-146.31;87.48
2036;BME280;23642;42.658;23.350;2023-06-26T15:32:17;51833.03;;;-146.31;89.21
2036;BME280;23642;42.658;23.350;2023-06-26T15:34:53;51717.47;;;-146.31;90.60
2036;BME280;23642;42.658;23.350;2023-06-26T15:37:32;51707.16;;;-146.31;88.79
2036;BME280;23642;42.658;23.350;2023-06-26T15:40:09;51703.03;;;-146.31;86.98